Time;durP1;ratioP1;P1;durP2;ratioP2;P2;SDS_P1;SDS_P2;PMS_P1;PMS_P2;Temp;Humidity;BMP_temperature;BMP_pressure;BME280_temperature;BME280_humidity;BME280_pressure;Samples;Min_cycle;Max_cycle;Signal;HPM_P1;HPM_P2
2022/07/03 00:01:58;;;;;;;1.15;0.80;;;19.20;93.20;;;;;;5011018;28;20176;-91
2022/07/03 00:04:24;;;;;;;1.38;0.98;;;19.20;93.20;;;;;;5012467;28;20184;-92
2022/07/03 00:06:50;;;;;;;1.90;0.98;;;19.20;93.40;;;;;;5012401;28;20186;-92
2022/07/03 00:09:15;;;;;;;0.80;0.60;;;19.20;93.40;;;;;;5012694;28;20204;-91
2022/07/03 00:11:42;;;;;;;1.40;0.80;;;19.20;93.20;;;;;;5012624;28;20214;-92
2022/07/03 00:14:08;;;;;;;1.02;0.90;;;19.20;93.50;;;;;;5012355;28;20212;-90
2022/07/03 00:16:34;;;;;;;1.92;0.93;;;19.20;93.20;;;;;;5012434;28;20621;-91
2022/07/03 00:18:59;;;;;;;1.35;0.70;;;19.20;93.30;;;;;;5012046;28;20183;-91
2022/07/03 00:21:35;;;;;;;3.55;0.90;;;19.20;93.30;;;;;;5011818;28;20637;-93
2022/07/03 00:24:08;;;;;;;1.10;0.82;;;19.10;93.10;;;;;;5011716;28;20602;-90
2022/07/03 00:26:36;;;;;;;1.52;0.77;;;19.20;93.40;;;;;;4996851;28;20164;-91
2022/07/03 00:29:03;;;;;;;2.78;0.90;;;19.10;93.50;;;;;;5012003;28;20211;-89
2022/07/03 00:31:33;;;;;;;3.17;1.00;;;19.20;93.40;;;;;;5009081;28;20195;-94
2022/07/03 00:34:01;;;;;;;2.60;1.05;;;19.20;93.00;;;;;;4976201;28;20662;-91
2022/07/03 00:36:33;;;;;;;1.75;1.02;;;19.20;93.10;;;;;;4976198;28;20212;-91
2022/07/03 00:38:58;;;;;;;3.97;0.80;;;19.10;93.30;;;;;;4976213;28;20173;-90
2022/07/03 00:41:30;;;;;;;1.52;1.05;;;19.10;93.50;;;;;;4977366;28;20255;-93
2022/07/03 00:43:57;;;;;;;1.63;1.20;;;19.10;93.50;;;;;;4975995;28;20673;-92
2022/07/03 00:46:25;;;;;;;2.53;1.27;;;19.10;93.20;;;;;;4975963;28;20188;-91
2022/07/03 00:48:53;;;;;;;2.28;0.90;;;19.10;93.20;;;;;;4976388;28;20228;-93
2022/07/03 00:51:24;;;;;;;1.80;1.10;;;19.10;93.20;;;;;;4976423;28;20219;-91
2022/07/03 00:53:56;;;;;;;2.58;0.95;;;19.00;93.40;;;;;;4975736;28;20240;-94
2022/07/03 00:56:27;;;;;;;1.98;0.90;;;19.00;93.40;;;;;;4976267;28;20176;-91
2022/07/03 00:58:56;;;;;;;3.40;0.70;;;19.10;93.40;;;;;;4975836;28;20180;-90
2022/07/03 01:01:25;;;;;;;2.42;0.70;;;19.10;93.10;;;;;;4977183;28;20180;-91
2022/07/03 01:04:04;;;;;;;2.08;1.10;;;19.10;93.50;;;;;;5011513;28;20184;-89
2022/07/03 01:06:35;;;;;;;2.35;0.93;;;19.10;93.40;;;;;;5011522;28;20180;-90
2022/07/03 01:09:05;;;;;;;1.20;1.10;;;19.10;93.50;;;;;;5011124;28;20211;-92
2022/07/03 01:11:36;;;;;;;5.93;1.00;;;19.10;93.30;;;;;;5011510;28;20184;-90
2022/07/03 01:14:27;;;;;;;1.85;1.10;;;19.10;93.40;;;;;;4994980;28;20569;-91
2022/07/03 01:17:01;;;;;;;1.33;0.90;;;19.10;93.40;;;;;;4994577;28;20594;-91
2022/07/03 01:19:37;;;;;;;1.60;0.95;;;19.10;93.40;;;;;;5011402;28;20230;-93
2022/07/03 01:22:12;;;;;;;1.33;1.08;;;19.10;93.10;;;;;;5011385;28;20186;-91
2022/07/03 01:24:58;;;;;;;6.57;1.10;;;19.10;93.10;;;;;;4995936;28;20492;-90
2022/07/03 01:27:33;;;;;;;0.98;0.70;;;19.10;93.00;;;;;;4955563;28;20222;-89
2022/07/03 01:30:04;;;;;;;1.25;0.77;;;19.10;93.10;;;;;;4995652;28;20207;-89
2022/07/03 01:32:35;;;;;;;1.10;0.77;;;19.10;93.00;;;;;;5010563;28;20180;-93
2022/07/03 01:35:02;;;;;;;1.58;0.93;;;19.10;92.80;;;;;;5010691;28;20629;-90
2022/07/03 01:37:33;;;;;;;1.88;0.98;;;19.10;92.70;;;;;;5010980;28;20612;-92
2022/07/03 01:40:01;;;;;;;5.20;1.08;;;19.10;92.80;;;;;;5010919;28;20230;-90
2022/07/03 01:42:29;;;;;;;1.25;0.85;;;19.10;92.70;;;;;;5010681;28;20676;-91
2022/07/03 01:44:58;;;;;;;1.55;1.00;;;19.00;92.90;;;;;;4995431;28;20640;-90
2022/07/03 01:47:25;;;;;;;1.23;0.88;;;19.00;92.90;;;;;;5010845;28;20391;-90
2022/07/03 01:49:53;;;;;;;1.67;1.10;;;18.90;93.30;;;;;;5010461;28;20239;-90
2022/07/03 01:52:20;;;;;;;1.05;0.95;;;18.90;93.60;;;;;;5010633;28;20184;-91
2022/07/03 01:54:47;;;;;;;1.10;0.90;;;18.90;93.30;;;;;;4994937;28;20269;-91
2022/07/03 01:57:14;;;;;;;1.55;1.00;;;18.90;93.30;;;;;;4994153;28;20191;-91
2022/07/03 01:59:40;;;;;;;4.22;1.20;;;18.90;93.70;;;;;;4995279;28;20683;-91
2022/07/03 02:02:28;;;;;;;2.03;1.00;;;18.80;94.20;;;;;;5010226;28;20194;-91
2022/07/03 02:05:07;;;;;;;1.55;0.90;;;18.70;94.50;;;;;;5010418;28;20258;-91
2022/07/03 02:08:11;;;;;;;1.83;1.00;;;18.70;95.10;;;;;;5010367;28;20509;-91
2022/07/03 02:10:46;;;;;;;1.05;0.90;;;18.60;94.30;;;;;;4991611;28;20282;-91
2022/07/03 02:13:28;;;;;;;1.35;0.95;;;18.50;94.80;;;;;;5010248;28;20210;-90
2022/07/03 02:15:58;;;;;;;1.33;1.00;;;18.50;94.90;;;;;;4994981;28;20203;-91
2022/07/03 02:18:30;;;;;;;1.90;1.05;;;18.50;94.80;;;;;;5010226;28;20179;-90
2022/07/03 02:21:05;;;;;;;1.17;1.08;;;18.50;95.10;;;;;;5010544;28;20180;-91
2022/07/03 02:23:35;;;;;;;1.33;1.10;;;18.40;95.30;;;;;;5010356;28;20171;-90
2022/07/03 02:26:05;;;;;;;2.05;1.15;;;18.40;95.20;;;;;;5010202;28;20183;-91
2022/07/03 02:28:51;;;;;;;4.03;1.08;;;18.40;95.00;;;;;;5010196;28;20204;-91
2022/07/03 02:31:18;;;;;;;2.88;1.08;;;18.30;95.10;;;;;;5010259;28;20179;-89
2022/07/03 02:33:46;;;;;;;1.52;1.20;;;18.30;95.50;;;;;;4993109;28;20195;-91
2022/07/03 02:36:16;;;;;;;1.55;1.17;;;18.30;95.30;;;;;;4993914;28;20180;-91
2022/07/03 02:38:44;;;;;;;3.55;1.00;;;18.30;95.20;;;;;;4993802;28;20211;-91
2022/07/03 02:41:17;;;;;;;1.73;1.10;;;18.30;95.40;;;;;;4994085;28;20188;-91
2022/07/03 02:44:01;;;;;;;1.50;1.10;;;18.40;95.60;;;;;;4993793;28;20522;-91
2022/07/03 02:49:32;;;;;;;1.70;1.33;;;18.40;95.50;;;;;;4998637;28;20237;-92
2022/07/03 02:52:20;;;;;;;1.20;1.10;;;18.40;95.80;;;;;;4997566;28;20629;-91
2022/07/03 02:54:47;;;;;;;2.67;1.15;;;18.30;95.70;;;;;;5013442;28;20241;-91
2022/07/03 02:57:16;;;;;;;3.08;1.35;;;18.30;95.70;;;;;;4998764;28;20191;-90
2022/07/03 02:59:52;;;;;;;1.98;1.10;;;18.30;96.20;;;;;;4997358;28;20176;-90
2022/07/03 03:02:35;;;;;;;1.35;1.23;;;18.20;96.40;;;;;;4997109;28;20188;-91
2022/07/03 03:05:09;;;;;;;1.77;1.30;;;18.10;96.60;;;;;;4998439;28;20214;-91
2022/07/03 03:07:57;;;;;;;3.35;1.25;;;18.00;96.80;;;;;;5000543;28;20239;-91
2022/07/03 03:10:23;;;;;;;1.80;1.23;;;18.00;97.00;;;;;;4959424;28;20227;-91
2022/07/03 03:13:04;;;;;;;2.17;1.23;;;18.00;97.10;;;;;;4997349;28;20176;-90
2022/07/03 03:15:32;;;;;;;1.88;1.20;;;18.00;97.20;;;;;;4998010;28;20254;-90
2022/07/03 03:18:07;;;;;;;1.92;1.38;;;17.90;97.10;;;;;;4996786;28;20180;-91
2022/07/03 03:20:35;;;;;;;1.50;1.40;;;17.90;97.60;;;;;;4996979;28;20183;-91
2022/07/03 03:23:38;;;;;;;1.40;1.30;;;17.90;97.40;;;;;;4996941;28;20180;-91
2022/07/03 03:26:04;;;;;;;1.55;1.10;;;17.80;97.60;;;;;;4998211;28;20255;-91
2022/07/03 03:28:30;;;;;;;1.40;1.30;;;17.90;97.50;;;;;;4996792;28;20215;-90
2022/07/03 03:30:56;;;;;;;1.50;1.13;;;17.90;97.70;;;;;;4996819;28;20235;-91
2022/07/03 03:33:22;;;;;;;3.10;1.50;;;17.90;97.80;;;;;;4996536;28;20187;-91
2022/07/03 03:35:48;;;;;;;2.63;1.20;;;17.90;97.80;;;;;;4996712;28;20180;-90
2022/07/03 03:38:14;;;;;;;2.15;1.27;;;17.90;97.90;;;;;;4996710;28;20560;-89
2022/07/03 03:40:40;;;;;;;2.13;1.45;;;17.90;98.10;;;;;;4996795;28;20211;-89
2022/07/03 03:43:06;;;;;;;2.63;1.50;;;18.00;98.00;;;;;;4996662;28;20207;-90
2022/07/03 03:45:32;;;;;;;1.85;1.38;;;18.00;97.90;;;;;;4996321;28;20176;-89
2022/07/03 03:47:58;;;;;;;1.50;1.40;;;17.90;98.30;;;;;;4996285;28;20268;-89
2022/07/03 03:50:24;;;;;;;2.10;1.45;;;17.90;98.40;;;;;;4996257;28;20242;-89
2022/07/03 03:52:50;;;;;;;1.58;1.48;;;17.90;98.50;;;;;;4996041;28;20180;-90
2022/07/03 03:55:16;;;;;;;2.35;1.40;;;17.80;99.30;;;;;;4997493;28;20596;-92
2022/07/03 03:57:41;;;;;;;3.83;1.40;;;17.80;99.50;;;;;;4995904;28;20274;-89
2022/07/03 04:00:08;;;;;;;3.75;1.48;;;17.70;99.30;;;;;;4996599;28;20190;-90
2022/07/03 04:02:33;;;;;;;1.90;1.60;;;17.60;99.90;;;;;;4996110;28;20194;-90
2022/07/03 04:04:59;;;;;;;6.30;1.70;;;17.60;99.90;;;;;;5012414;28;20184;-90
2022/07/03 04:07:26;;;;;;;1.40;1.30;;;17.50;99.90;;;;;;5012510;28;20176;-89
2022/07/03 04:09:52;;;;;;;3.58;1.60;;;17.60;99.90;;;;;;5012423;28;20226;-89
2022/07/03 04:12:17;;;;;;;4.85;1.70;;;17.60;99.90;;;;;;5012113;28;20176;-89
2022/07/03 04:14:43;;;;;;;1.67;1.40;;;17.60;99.90;;;;;;5011901;28;20645;-89
2022/07/03 04:17:09;;;;;;;2.22;1.63;;;17.60;99.90;;;;;;5012085;28;20614;-89
2022/07/03 04:19:34;;;;;;;1.60;1.50;;;17.70;99.90;;;;;;5012211;28;20182;-89
2022/07/03 04:22:00;;;;;;;3.13;1.63;;;17.70;99.90;;;;;;5012164;28;20183;-89
2022/07/03 04:24:26;;;;;;;2.38;1.40;;;17.80;99.90;;;;;;5012062;28;20207;-89
2022/07/03 04:26:52;;;;;;;1.80;1.40;;;17.80;99.90;;;;;;4996634;28;20180;-89
2022/07/03 04:29:18;;;;;;;5.78;1.48;;;17.90;99.90;;;;;;5011872;28;20212;-89
2022/07/03 04:31:43;;;;;;;3.67;1.50;;;17.90;99.90;;;;;;5007376;28;20184;-89
2022/07/03 04:34:09;;;;;;;3.35;1.42;;;18.00;99.90;;;;;;4975952;28;20244;-89
2022/07/03 04:36:34;;;;;;;2.47;1.48;;;18.10;99.90;;;;;;4976124;28;20521;-89
2022/07/03 04:39:00;;;;;;;1.42;1.33;;;18.10;99.90;;;;;;4975955;28;20181;-91
2022/07/03 04:41:26;;;;;;;1.92;1.63;;;18.20;99.90;;;;;;4976159;28;20184;-90
2022/07/03 04:43:51;;;;;;;1.77;1.67;;;18.30;99.90;;;;;;4975918;28;20232;-90
2022/07/03 04:46:18;;;;;;;3.15;1.70;;;18.40;99.90;;;;;;4975816;28;20271;-89
2022/07/03 04:48:45;;;;;;;4.82;1.50;;;18.50;99.90;;;;;;4975535;28;20576;-88
2022/07/03 04:51:11;;;;;;;2.67;1.35;;;18.60;99.80;;;;;;4975723;28;20192;-89
2022/07/03 04:53:37;;;;;;;2.65;1.50;;;18.60;99.70;;;;;;4975464;28;20278;-89
2022/07/03 04:56:02;;;;;;;2.13;1.30;;;18.60;99.90;;;;;;4975657;28;20260;-89
2022/07/03 04:58:28;;;;;;;1.40;1.20;;;18.60;99.90;;;;;;4975802;28;20176;-89
2022/07/03 05:00:54;;;;;;;1.40;1.30;;;18.70;99.90;;;;;;4975589;28;20184;-89
2022/07/03 05:03:19;;;;;;;3.45;1.58;;;18.80;99.90;;;;;;4993884;28;20179;-89
2022/07/03 05:05:45;;;;;;;1.83;1.52;;;18.90;99.90;;;;;;4995965;28;20175;-89
2022/07/03 05:08:11;;;;;;;1.50;1.40;;;19.10;99.90;;;;;;4995552;28;20172;-89
2022/07/03 05:10:36;;;;;;;1.73;1.42;;;19.20;99.90;;;;;;5010978;28;20216;-89
2022/07/03 05:13:02;;;;;;;2.63;1.35;;;19.30;99.50;;;;;;4996257;28;20481;-89
2022/07/03 05:15:28;;;;;;;2.13;1.40;;;19.40;98.80;;;;;;4994527;28;20669;-89
2022/07/03 05:17:53;;;;;;;3.10;1.33;;;19.50;98.80;;;;;;5010993;28;20183;-89
2022/07/03 05:20:25;;;;;;;3.58;1.30;;;19.60;98.70;;;;;;4996129;28;20169;-89
2022/07/03 05:22:59;;;;;;;1.90;1.55;;;19.60;98.70;;;;;;5011220;28;20606;-89
2022/07/03 05:25:25;;;;;;;3.95;1.50;;;19.70;98.10;;;;;;5010807;28;20270;-90
2022/07/03 05:27:52;;;;;;;1.98;1.25;;;19.80;98.60;;;;;;5011103;28;20544;-89
2022/07/03 05:30:20;;;;;;;3.38;1.63;;;19.80;98.50;;;;;;5011268;28;20219;-88
2022/07/03 05:32:46;;;;;;;2.08;1.27;;;19.90;98.50;;;;;;5010512;28;20195;-89
2022/07/03 05:35:12;;;;;;;1.30;1.20;;;19.90;98.60;;;;;;5010591;28;20184;-90
2022/07/03 05:37:38;;;;;;;3.15;1.40;;;19.90;98.30;;;;;;5011142;28;20176;-91
2022/07/03 05:40:04;;;;;;;2.03;1.25;;;19.90;97.90;;;;;;4996269;28;20175;-91
2022/07/03 05:42:30;;;;;;;1.25;1.10;;;20.00;97.80;;;;;;4994555;28;20188;-91
2022/07/03 05:44:56;;;;;;;4.15;1.30;;;20.00;98.10;;;;;;5007451;28;20187;-88
2022/07/03 05:47:21;;;;;;;2.00;1.27;;;20.00;98.00;;;;;;4989153;28;20184;-89
2022/07/03 05:49:47;;;;;;;2.20;1.38;;;20.00;98.00;;;;;;4992839;28;20549;-90
2022/07/03 05:52:13;;;;;;;4.38;1.38;;;19.90;97.80;;;;;;5010165;28;20238;-89
2022/07/03 05:54:39;;;;;;;4.28;1.40;;;20.00;98.00;;;;;;4993695;28;20330;-88
2022/07/03 05:57:05;;;;;;;3.15;1.27;;;20.00;98.30;;;;;;4995164;28;20256;-91
2022/07/03 05:59:31;;;;;;;1.83;1.25;;;20.00;97.70;;;;;;4994270;28;20246;-90
2022/07/03 06:01:57;;;;;;;2.28;1.10;;;20.10;97.80;;;;;;4993939;28;20192;-89
2022/07/03 06:04:22;;;;;;;1.73;1.10;;;20.20;97.80;;;;;;5009958;28;20176;-89
2022/07/03 06:06:48;;;;;;;2.47;1.20;;;20.20;98.10;;;;;;5010210;28;20187;-87
2022/07/03 06:09:14;;;;;;;2.65;1.20;;;20.20;98.00;;;;;;4993968;28;20215;-90
2022/07/03 06:11:39;;;;;;;2.78;1.05;;;20.30;98.10;;;;;;4993674;28;20556;-91
2022/07/03 06:14:05;;;;;;;1.33;1.20;;;20.30;97.80;;;;;;4983155;28;20172;-91
2022/07/03 06:16:31;;;;;;;1.55;1.20;;;20.40;97.50;;;;;;4983808;28;20219;-90
2022/07/03 06:18:56;;;;;;;3.47;1.13;;;20.50;96.90;;;;;;4984769;28;20191;-89
2022/07/03 06:21:22;;;;;;;3.03;1.00;;;20.60;96.80;;;;;;4980590;28;20239;-90
2022/07/03 06:23:48;;;;;;;1.58;1.08;;;20.70;96.00;;;;;;4977846;28;20286;-90
2022/07/03 06:26:14;;;;;;;1.52;1.13;;;20.80;95.90;;;;;;4983290;28;20192;-91
2022/07/03 06:28:40;;;;;;;2.60;1.20;;;20.90;96.00;;;;;;4986865;28;20171;-92
2022/07/03 06:31:06;;;;;;;2.30;1.20;;;21.00;95.80;;;;;;4988720;28;20184;-90
2022/07/03 06:33:32;;;;;;;1.85;1.10;;;21.10;95.50;;;;;;4985505;28;20188;-91
2022/07/03 06:35:58;;;;;;;1.73;1.08;;;21.20;95.80;;;;;;4997274;28;20187;-91
2022/07/03 06:38:23;;;;;;;2.28;1.50;;;21.30;95.90;;;;;;4997818;28;20610;-91
2022/07/03 06:40:49;;;;;;;2.65;0.90;;;21.40;96.00;;;;;;4997976;28;20607;-93
2022/07/03 06:43:15;;;;;;;1.02;0.88;;;21.40;95.20;;;;;;4997737;28;20184;-90
2022/07/03 06:45:40;;;;;;;1.10;1.00;;;21.50;95.30;;;;;;4997629;28;20182;-91
2022/07/03 06:48:06;;;;;;;1.15;1.00;;;21.60;94.30;;;;;;4997299;28;20183;-94
2022/07/03 06:50:32;;;;;;;1.67;1.00;;;21.80;95.20;;;;;;4998453;28;20549;-93
2022/07/03 06:52:58;;;;;;;3.60;1.10;;;22.00;95.00;;;;;;4997201;28;20184;-92
2022/07/03 06:55:23;;;;;;;1.10;0.90;;;22.10;94.20;;;;;;4997611;28;20188;-92
2022/07/03 06:57:49;;;;;;;1.55;1.10;;;22.20;93.80;;;;;;4997481;28;20556;-91
2022/07/03 07:00:15;;;;;;;1.20;0.90;;;22.40;93.10;;;;;;4997296;28;20187;-92
2022/07/03 07:02:40;;;;;;;0.82;0.80;;;22.50;92.70;;;;;;4996986;28;20207;-92
2022/07/03 07:05:07;;;;;;;2.47;0.88;;;22.70;93.10;;;;;;5013430;28;20618;-91
2022/07/03 07:07:32;;;;;;;2.88;0.90;;;22.90;91.90;;;;;;4997328;28;20176;-92
2022/07/03 07:09:58;;;;;;;1.05;0.80;;;23.00;91.70;;;;;;4997147;28;20230;-90
2022/07/03 07:12:25;;;;;;;1.23;0.82;;;23.30;91.70;;;;;;4997200;28;20179;-92
2022/07/03 07:14:51;;;;;;;1.35;0.80;;;23.40;91.00;;;;;;4997064;28;20215;-91
2022/07/03 07:17:16;;;;;;;1.48;0.90;;;23.50;90.50;;;;;;4996865;28;20581;-87
2022/07/03 07:19:42;;;;;;;1.75;1.05;;;23.70;90.50;;;;;;4997811;28;20175;-90
2022/07/03 07:22:08;;;;;;;1.10;0.85;;;23.70;90.20;;;;;;4997847;28;20214;-90
2022/07/03 07:24:34;;;;;;;2.60;1.00;;;23.80;90.50;;;;;;4996824;28;20271;-90
2022/07/03 07:26:59;;;;;;;1.30;0.93;;;24.00;90.30;;;;;;4997845;28;20180;-90
2022/07/03 07:29:25;;;;;;;1.52;0.98;;;24.00;90.00;;;;;;4997799;28;20278;-89
2022/07/03 07:31:51;;;;;;;1.40;0.80;;;24.10;89.60;;;;;;4997480;28;20187;-87
2022/07/03 07:34:17;;;;;;;1.10;1.00;;;24.20;89.40;;;;;;4996411;28;20572;-90
2022/07/03 07:36:42;;;;;;;2.08;1.20;;;24.40;90.00;;;;;;5008991;28;20207;-87
2022/07/03 07:39:09;;;;;;;2.28;1.00;;;24.50;88.80;;;;;;4995528;28;20187;-87
2022/07/03 07:41:36;;;;;;;1.77;1.00;;;24.50;88.60;;;;;;5003393;28;20179;-90
2022/07/03 07:44:02;;;;;;;2.08;1.00;;;24.70;88.10;;;;;;4987694;28;20187;-90
2022/07/03 07:46:28;;;;;;;2.33;1.20;;;24.90;88.80;;;;;;4994507;28;20179;-87
2022/07/03 07:48:54;;;;;;;2.65;1.10;;;24.90;86.50;;;;;;4989900;28;20212;-91
2022/07/03 07:51:20;;;;;;;1.27;0.90;;;25.00;86.50;;;;;;5004971;28;20642;-90
2022/07/03 07:53:46;;;;;;;2.17;1.13;;;25.00;87.10;;;;;;5003756;28;20228;-93
2022/07/03 07:56:11;;;;;;;1.65;1.08;;;25.20;87.10;;;;;;5009485;28;20188;-92
2022/07/03 07:58:37;;;;;;;1.17;0.90;;;25.30;87.00;;;;;;4993799;28;20195;-90
2022/07/03 08:06:31;;;;;;;2.17;1.13;;;25.70;86.70;;;;;;4995228;28;20269;-92
2022/07/03 08:08:56;;;;;;;2.08;0.90;;;25.80;87.80;;;;;;4995447;28;20642;-93
2022/07/03 08:11:22;;;;;;;3.10;0.95;;;26.00;86.40;;;;;;4992761;28;20603;-91
2022/07/03 08:13:48;;;;;;;1.15;0.90;;;26.10;87.00;;;;;;4983186;28;20254;-88
2022/07/03 08:16:14;;;;;;;1.80;0.90;;;26.20;87.60;;;;;;4996379;28;20250;-88
2022/07/03 08:18:40;;;;;;;1.45;0.90;;;26.30;87.00;;;;;;4995208;28;20179;-89
2022/07/03 08:21:05;;;;;;;3.58;1.10;;;26.40;85.90;;;;;;4995329;28;20179;-89
2022/07/03 08:23:31;;;;;;;2.97;1.02;;;26.50;86.70;;;;;;4993165;28;20219;-88
2022/07/03 08:25:57;;;;;;;1.73;0.85;;;26.50;86.50;;;;;;4995195;28;20180;-89
2022/07/03 08:28:22;;;;;;;2.65;0.88;;;26.50;86.20;;;;;;4995736;28;20187;-88
2022/07/03 08:30:48;;;;;;;1.35;0.95;;;26.50;87.70;;;;;;4992619;28;20210;-88
2022/07/03 08:33:14;;;;;;;1.75;0.80;;;26.60;85.80;;;;;;5011912;28;20180;-89
2022/07/03 08:35:40;;;;;;;1.33;0.80;;;26.50;86.80;;;;;;5000531;28;20192;-88
2022/07/03 08:38:06;;;;;;;1.45;0.88;;;26.60;86.60;;;;;;4991300;28;20275;-92
2022/07/03 08:40:31;;;;;;;1.88;1.10;;;26.70;86.50;;;;;;4996640;28;20175;-93
2022/07/03 08:43:03;;;;;;;1.20;0.90;;;26.80;86.70;;;;;;4994765;28;20176;-92
2022/07/03 08:45:29;;;;;;;1.48;1.00;;;26.90;85.90;;;;;;4995609;28;20533;-94
2022/07/03 08:48:04;;;;;;;5.55;0.90;;;27.00;88.70;;;;;;4995389;28;20180;-92
2022/07/03 08:50:32;;;;;;;0.90;0.73;;;27.10;88.40;;;;;;4995191;28;20208;-92
2022/07/03 08:53:00;;;;;;;4.53;1.27;;;27.20;85.80;;;;;;4995048;28;20180;-92
2022/07/03 08:55:25;;;;;;;1.50;0.85;;;27.20;85.20;;;;;;4995120;28;20219;-92
2022/07/03 08:58:13;;;;;;;1.65;0.88;;;27.30;87.10;;;;;;4995068;28;20277;-93
2022/07/03 09:00:39;;;;;;;2.65;0.95;;;27.30;84.50;;;;;;4995543;28;20186;-92
2022/07/03 09:03:10;;;;;;;0.80;0.77;;;27.30;84.80;;;;;;4994766;28;20184;-92
2022/07/03 09:05:35;;;;;;;1.52;0.88;;;27.40;85.00;;;;;;4996065;28;20603;-89
2022/07/03 09:08:02;;;;;;;2.28;0.80;;;27.40;84.90;;;;;;4996140;28;20195;-89
2022/07/03 09:10:28;;;;;;;1.95;0.80;;;27.50;83.90;;;;;;4995696;28;20211;-87
2022/07/03 09:12:55;;;;;;;1.63;0.70;;;27.50;84.20;;;;;;4994774;28;20258;-87
2022/07/03 09:15:22;;;;;;;1.40;0.88;;;27.70;82.90;;;;;;4994541;28;20199;-89
2022/07/03 09:18:36;;;;;;;1.52;0.75;;;27.60;82.90;;;;;;4996057;28;20506;-89
2022/07/03 09:21:03;;;;;;;1.38;0.82;;;27.80;84.20;;;;;;4982032;28;20238;-87
2022/07/03 09:23:36;;;;;;;0.93;0.65;;;27.80;82.20;;;;;;4994584;28;20190;-88
2022/07/03 09:26:03;;;;;;;2.75;0.82;;;27.90;83.70;;;;;;4995303;28;20203;-87
2022/07/03 09:28:53;;;;;;;8.68;1.17;;;28.00;82.10;;;;;;4994294;28;20622;-89
2022/07/03 09:31:22;;;;;;;1.65;0.70;;;27.80;79.20;;;;;;4994520;28;20215;-89
2022/07/03 09:34:00;;;;;;;0.98;0.68;;;28.00;82.70;;;;;;5010502;28;20207;-88
2022/07/03 09:36:41;;;;;;;1.52;0.55;;;27.90;83.00;;;;;;4994188;28;20186;-89
2022/07/03 09:39:30;;;;;;;3.95;0.65;;;28.10;83.40;;;;;;4995781;28;20606;-88
2022/07/03 09:42:00;;;;;;;0.60;0.60;;;28.20;82.90;;;;;;4994334;28;20216;-92
2022/07/03 09:44:33;;;;;;;1.52;0.80;;;28.40;80.10;;;;;;4994628;28;20176;-89
2022/07/03 09:47:20;;;;;;;1.60;0.70;;;28.40;80.20;;;;;;4995839;28;20181;-89
2022/07/03 09:49:54;;;;;;;1.35;0.70;;;28.40;81.00;;;;;;4993970;28;20215;-92
2022/07/03 09:52:28;;;;;;;0.63;0.60;;;28.60;79.60;;;;;;4994209;28;20512;-92
2022/07/03 09:54:55;;;;;;;1.65;0.60;;;28.70;80.60;;;;;;4993856;28;20251;-90
2022/07/03 09:57:22;;;;;;;1.13;0.70;;;28.80;81.00;;;;;;4993806;28;20334;-88
2022/07/03 09:59:48;;;;;;;0.73;0.60;;;28.80;78.70;;;;;;4990955;28;20180;-90
2022/07/03 10:02:14;;;;;;;3.70;0.73;;;28.90;78.80;;;;;;4992182;28;20543;-91
2022/07/03 10:04:40;;;;;;;2.50;0.80;;;28.90;78.80;;;;;;4993597;28;20176;-94
2022/07/03 10:07:06;;;;;;;0.85;0.60;;;29.00;80.30;;;;;;4992916;28;20207;-89
2022/07/03 10:09:33;;;;;;;0.80;0.60;;;28.90;78.70;;;;;;5010150;28;20214;-92
2022/07/03 10:12:02;;;;;;;1.52;1.05;;;28.90;78.90;;;;;;4993794;28;20191;-88
2022/07/03 10:14:30;;;;;;;0.52;0.50;;;28.90;77.60;;;;;;4993897;28;20176;-93
2022/07/03 10:16:58;;;;;;;1.95;0.60;;;28.90;77.40;;;;;;4993687;28;20270;-92
2022/07/03 10:19:30;;;;;;;0.75;0.70;;;28.90;78.40;;;;;;5009992;28;20295;-93
2022/07/03 10:22:06;;;;;;;1.70;0.80;;;28.90;78.00;;;;;;5010163;28;20599;-90
2022/07/03 10:24:32;;;;;;;1.63;0.60;;;29.00;77.00;;;;;;5010398;28;20566;-93
2022/07/03 10:26:59;;;;;;;1.77;0.70;;;29.10;78.30;;;;;;5010082;28;20175;-93
2022/07/03 10:29:26;;;;;;;1.42;0.80;;;29.20;77.50;;;;;;5010668;28;20208;-92
2022/07/03 10:31:53;;;;;;;0.80;0.60;;;29.20;76.90;;;;;;5010363;28;20211;-93
2022/07/03 10:34:21;;;;;;;1.83;0.70;;;29.20;77.30;;;;;;5009952;28;20270;-94
2022/07/03 10:36:50;;;;;;;1.45;0.70;;;29.40;79.00;;;;;;5010339;28;20180;-92
2022/07/03 10:39:38;;;;;;;1.35;0.80;;;29.50;78.40;;;;;;4993011;28;20607;-91
2022/07/03 10:45:05;;;;;;;1.23;0.80;;;29.70;78.10;;;;;;4992371;28;20227;-93
2022/07/03 10:47:49;;;;;;;1.88;0.70;;;29.60;76.60;;;;;;4990214;28;20180;-92
2022/07/03 10:50:23;;;;;;;0.60;0.60;;;29.70;75.20;;;;;;4988427;28;20261;-94
2022/07/03 10:52:50;;;;;;;1.73;0.75;;;29.70;75.40;;;;;;5005530;28;20246;-89
2022/07/03 10:55:17;;;;;;;0.90;0.60;;;29.70;76.80;;;;;;4991514;28;20632;-92
2022/07/03 10:58:04;;;;;;;0.85;0.60;;;29.80;75.20;;;;;;4993558;28;20630;-91
2022/07/03 11:00:29;;;;;;;1.95;0.88;;;29.80;74.50;;;;;;4989277;28;20191;-95
2022/07/03 11:02:56;;;;;;;0.88;0.70;;;30.00;77.00;;;;;;4993242;28;20184;-93
2022/07/03 11:05:23;;;;;;;0.93;0.77;;;30.00;76.70;;;;;;5009635;28;20196;-93
2022/07/03 11:07:53;;;;;;;2.88;0.82;;;30.10;76.80;;;;;;4996190;28;20238;-92
2022/07/03 11:10:18;;;;;;;3.00;0.80;;;30.20;75.70;;;;;;5013302;28;20732;-93
2022/07/03 11:13:05;;;;;;;1.40;0.60;;;30.20;76.70;;;;;;5013159;28;20190;-94
2022/07/03 11:15:40;;;;;;;1.73;0.70;;;30.10;76.80;;;;;;4997069;28;20227;-94
2022/07/03 11:18:11;;;;;;;1.08;0.70;;;29.90;76.70;;;;;;5013531;28;20174;-92
2022/07/03 11:20:43;;;;;;;1.23;0.70;;;29.60;76.50;;;;;;5013254;28;20636;-91
2022/07/03 11:23:26;;;;;;;1.10;0.70;;;29.40;75.80;;;;;;4998359;28;20490;-92
2022/07/03 11:25:54;;;;;;;4.88;0.70;;;29.50;75.10;;;;;;5013385;28;20180;-93
2022/07/03 11:28:32;;;;;;;3.47;0.63;;;29.60;74.70;;;;;;5013034;28;20606;-92
2022/07/03 11:33:45;;;;;;;0.75;0.52;;;29.80;75.20;;;;;;4997452;28;20649;-92
2022/07/03 11:36:17;;;;;;;1.70;0.70;;;29.90;74.80;;;;;;4998124;28;20186;-90
2022/07/03 11:38:52;;;;;;;1.13;0.63;;;30.10;74.80;;;;;;4997894;28;20179;-91
2022/07/03 11:41:18;;;;;;;0.73;0.55;;;30.30;75.60;;;;;;5013325;28;20186;-92
2022/07/03 11:43:47;;;;;;;1.20;0.60;;;30.50;74.30;;;;;;5012944;28;20230;-87
2022/07/03 11:46:18;;;;;;;0.80;0.60;;;30.60;72.60;;;;;;4997839;28;20215;-91
2022/07/03 11:48:43;;;;;;;0.63;0.52;;;30.60;73.10;;;;;;5011112;28;20545;-90
2022/07/03 11:51:12;;;;;;;1.52;0.65;;;30.60;72.90;;;;;;5013306;28;20184;-92
2022/07/03 11:53:39;;;;;;;0.75;0.60;;;30.70;71.80;;;;;;5012803;28;20230;-93
2022/07/03 11:56:12;;;;;;;1.85;0.63;;;30.80;72.70;;;;;;5012484;28;20194;-91
2022/07/03 11:58:55;;;;;;;1.23;0.88;;;30.90;74.90;;;;;;4997151;28;20586;-91
2022/07/03 12:01:27;;;;;;;2.75;0.70;;;31.00;73.50;;;;;;5012450;28;20258;-94
2022/07/03 12:04:15;;;;;;;1.30;0.80;;;30.80;73.10;;;;;;5011506;28;20198;-90
2022/07/03 12:06:45;;;;;;;1.05;0.60;;;30.20;73.80;;;;;;4996746;28;20494;-90
2022/07/03 12:09:15;;;;;;;1.17;0.80;;;29.70;72.70;;;;;;5010437;28;20705;-92
2022/07/03 12:11:41;;;;;;;0.77;0.63;;;29.10;74.70;;;;;;4992961;28;20202;-85
2022/07/03 12:14:09;;;;;;;0.73;0.60;;;28.90;76.20;;;;;;4990143;28;20179;-87
2022/07/03 12:16:34;;;;;;;1.80;0.70;;;29.20;74.90;;;;;;4993765;28;20218;-90
2022/07/03 12:19:05;;;;;;;1.20;0.70;;;29.50;73.50;;;;;;4993029;28;20268;-90
2022/07/03 12:21:39;;;;;;;1.67;0.80;;;29.90;75.20;;;;;;4994127;28;20651;-88
2022/07/03 12:24:13;;;;;;;0.95;0.65;;;30.10;73.90;;;;;;4994400;28;20262;-88
2022/07/03 12:26:40;;;;;;;0.88;0.60;;;29.80;74.50;;;;;;4993783;28;20194;-87
2022/07/03 12:29:08;;;;;;;1.70;0.70;;;29.70;73.90;;;;;;4993579;28;20223;-87
2022/07/03 12:31:39;;;;;;;0.60;0.60;;;29.60;75.70;;;;;;4994747;28;20202;-88
2022/07/03 12:34:05;;;;;;;3.60;0.70;;;29.80;75.80;;;;;;4993504;28;20634;-91
2022/07/03 12:36:31;;;;;;;1.20;0.77;;;30.20;75.10;;;;;;4995299;28;20267;-88
2022/07/03 12:38:59;;;;;;;0.60;0.60;;;30.30;72.40;;;;;;4993851;28;20211;-87
2022/07/03 12:41:27;;;;;;;1.30;0.88;;;30.40;71.80;;;;;;4994156;28;20226;-89
2022/07/03 12:43:54;;;;;;;1.55;0.68;;;30.60;72.20;;;;;;4994172;28;20183;-87
2022/07/03 12:46:31;;;;;;;1.85;0.70;;;30.80;72.90;;;;;;4993932;28;20198;-90
2022/07/03 12:48:58;;;;;;;1.02;0.70;;;30.90;72.20;;;;;;4992225;28;20180;-93
2022/07/03 12:51:39;;;;;;;1.25;0.60;;;31.00;68.90;;;;;;4994800;28;20274;-88
2022/07/03 12:54:21;;;;;;;1.58;0.68;;;31.00;72.00;;;;;;4993892;28;20227;-90
2022/07/03 12:59:16;;;;;;;1.13;0.65;;;31.10;71.50;;;;;;4994286;28;20242;-91
2022/07/03 13:00:11;;;;;;;3.13;0.57;;;31.30;70.50;;;;;;4991918;28;20782;-89
2022/07/03 13:02:41;;;;;;;1.83;0.60;;;31.30;71.00;;;;;;4992777;28;20222;-87
2022/07/03 13:05:20;;;;;;;1.45;0.80;;;31.40;69.00;;;;;;4994541;28;20641;-89
2022/07/03 13:07:56;;;;;;;2.25;0.60;;;31.40;69.60;;;;;;4994200;28;20225;-89
2022/07/03 13:10:23;;;;;;;0.77;0.60;;;31.30;69.10;;;;;;4990679;28;20210;-89
2022/07/03 13:12:59;;;;;;;2.88;0.70;;;31.30;70.10;;;;;;4991484;28;20237;-90
2022/07/03 13:15:29;;;;;;;1.25;0.85;;;31.20;69.00;;;;;;4993889;28;20671;-89